sensor_id;sensor_type;location;lat;lon;timestamp;P1;durP1;ratioP1;P2;durP2;ratioP2
7475;SDS011;3779;49.216;8.650;2023-12-22T06:26:56;2.33;;;1.43;;
7475;SDS011;3779;49.216;8.650;2023-12-22T06:30:01;3.67;;;1.83;;
7475;SDS011;3779;49.216;8.650;2023-12-22T06:33:05;4.73;;;2.33;;
7475;SDS011;3779;49.216;8.650;2023-12-22T06:36:25;1.77;;;1.48;;
7475;SDS011;3779;49.216;8.650;2023-12-22T06:39:23;5.10;;;1.88;;
7475;SDS011;3779;49.216;8.650;2023-12-22T07:34:43;4.97;;;2.07;;
7475;SDS011;3779;49.216;8.650;2023-12-22T07:40:26;6.57;;;3.90;;
7475;SDS011;3779;49.216;8.650;2023-12-22T07:43:12;5.13;;;3.47;;
7475;SDS011;3779;49.216;8.650;2023-12-22T07:45:58;1.73;;;1.20;;
7475;SDS011;3779;49.216;8.650;2023-12-22T07:48:44;2.13;;;1.70;;
7475;SDS011;3779;49.216;8.650;2023-12-22T07:51:31;4.40;;;2.97;;
7475;SDS011;3779;49.216;8.650;2023-12-22T07:54:18;2.47;;;1.63;;
7475;SDS011;3779;49.216;8.650;2023-12-22T07:57:04;2.50;;;1.70;;
7475;SDS011;3779;49.216;8.650;2023-12-22T07:59:50;4.93;;;1.95;;
7475;SDS011;3779;49.216;8.650;2023-12-22T08:02:35;3.13;;;1.83;;
7475;SDS011;3779;49.216;8.650;2023-12-22T08:05:21;1.30;;;1.03;;
7475;SDS011;3779;49.216;8.650;2023-12-22T08:08:07;3.00;;;1.67;;
7475;SDS011;3779;49.216;8.650;2023-12-22T08:10:53;2.60;;;1.80;;
7475;SDS011;3779;49.216;8.650;2023-12-22T08:13:39;3.00;;;1.53;;
7475;SDS011;3779;49.216;8.650;2023-12-22T08:16:25;1.67;;;1.23;;
7475;SDS011;3779;49.216;8.650;2023-12-22T08:19:10;2.88;;;1.50;;
7475;SDS011;3779;49.216;8.650;2023-12-22T08:21:56;2.53;;;1.17;;
7475;SDS011;3779;49.216;8.650;2023-12-22T08:24:42;2.53;;;1.70;;
7475;SDS011;3779;49.216;8.650;2023-12-22T08:27:28;2.37;;;1.20;;
7475;SDS011;3779;49.216;8.650;2023-12-22T08:30:13;3.00;;;1.30;;
7475;SDS011;3779;49.216;8.650;2023-12-22T08:33:02;3.63;;;1.70;;
7475;SDS011;3779;49.216;8.650;2023-12-22T08:35:48;4.47;;;1.90;;
7475;SDS011;3779;49.216;8.650;2023-12-22T08:38:34;1.03;;;0.93;;
7475;SDS011;3779;49.216;8.650;2023-12-22T09:53:28;6.20;;;2.57;;
7475;SDS011;3779;49.216;8.650;2023-12-22T09:56:16;5.43;;;2.57;;
7475;SDS011;3779;49.216;8.650;2023-12-22T09:59:03;2.78;;;1.70;;
7475;SDS011;3779;49.216;8.650;2023-12-22T10:01:49;4.00;;;1.70;;
7475;SDS011;3779;49.216;8.650;2023-12-22T10:04:37;2.22;;;1.27;;
7475;SDS011;3779;49.216;8.650;2023-12-22T10:07:22;5.27;;;2.20;;
7475;SDS011;3779;49.216;8.650;2023-12-22T10:10:09;4.45;;;1.83;;
7475;SDS011;3779;49.216;8.650;2023-12-22T10:12:56;6.63;;;2.20;;
7475;SDS011;3779;49.216;8.650;2023-12-22T10:15:44;4.20;;;1.60;;
7475;SDS011;3779;49.216;8.650;2023-12-22T10:18:32;4.40;;;2.20;;
7475;SDS011;3779;49.216;8.650;2023-12-22T10:21:18;6.20;;;2.10;;
7475;SDS011;3779;49.216;8.650;2023-12-22T10:24:06;3.73;;;2.23;;
7475;SDS011;3779;49.216;8.650;2023-12-22T10:26:55;5.23;;;1.90;;
7475;SDS011;3779;49.216;8.650;2023-12-22T10:29:52;3.37;;;1.50;;
7475;SDS011;3779;49.216;8.650;2023-12-22T10:32:40;3.97;;;1.80;;
7475;SDS011;3779;49.216;8.650;2023-12-22T10:35:29;3.77;;;1.53;;
7475;SDS011;3779;49.216;8.650;2023-12-22T10:41:03;2.95;;;1.60;;
7475;SDS011;3779;49.216;8.650;2023-12-22T10:46:39;5.47;;;2.53;;
7475;SDS011;3779;49.216;8.650;2023-12-22T10:49:25;3.07;;;1.37;;
7475;SDS011;3779;49.216;8.650;2023-12-22T10:55:22;5.33;;;1.87;;
7475;SDS011;3779;49.216;8.650;2023-12-22T10:58:08;6.95;;;2.38;;
7475;SDS011;3779;49.216;8.650;2023-12-22T11:00:56;4.57;;;2.03;;
7475;SDS011;3779;49.216;8.650;2023-12-22T11:30:10;4.03;;;1.70;;
7475;SDS011;3779;49.216;8.650;2023-12-22T14:31:12;3.33;;;0.98;;
7475;SDS011;3779;49.216;8.650;2023-12-22T14:33:58;2.50;;;0.87;;
7475;SDS011;3779;49.216;8.650;2023-12-22T14:36:44;3.20;;;1.47;;
7475;SDS011;3779;49.216;8.650;2023-12-22T14:39:30;2.83;;;0.82;;
7475;SDS011;3779;49.216;8.650;2023-12-22T14:45:28;1.47;;;1.00;;
7475;SDS011;3779;49.216;8.650;2023-12-22T14:48:23;1.87;;;1.10;;
7475;SDS011;3779;49.216;8.650;2023-12-22T15:00:11;3.07;;;0.90;;
7475;SDS011;3779;49.216;8.650;2023-12-22T15:06:22;3.77;;;0.97;;
7475;SDS011;3779;49.216;8.650;2023-12-22T15:09:09;1.07;;;1.00;;
7475;SDS011;3779;49.216;8.650;2023-12-22T15:26:29;1.20;;;1.10;;
7475;SDS011;3779;49.216;8.650;2023-12-22T15:29:10;4.30;;;1.30;;
7475;SDS011;3779;49.216;8.650;2023-12-22T15:34:58;1.90;;;1.40;;
7475;SDS011;3779;49.216;8.650;2023-12-22T15:37:44;1.97;;;1.07;;
7475;SDS011;3779;49.216;8.650;2023-12-22T15:47:07;1.97;;;1.10;;
7475;SDS011;3779;49.216;8.650;2023-12-22T15:49:53;4.53;;;2.07;;
7475;SDS011;3779;49.216;8.650;2023-12-22T15:55:27;1.00;;;1.00;;
7475;SDS011;3779;49.216;8.650;2023-12-22T16:16:33;0.90;;;0.87;;
7475;SDS011;3779;49.216;8.650;2023-12-22T16:19:19;1.20;;;1.10;;
7475;SDS011;3779;49.216;8.650;2023-12-22T16:22:05;2.90;;;1.20;;
7475;SDS011;3779;49.216;8.650;2023-12-22T16:24:51;1.03;;;0.93;;
7475;SDS011;3779;49.216;8.650;2023-12-22T16:27:40;0.90;;;0.90;;
7475;SDS011;3779;49.216;8.650;2023-12-22T16:33:42;2.53;;;0.93;;
7475;SDS011;3779;49.216;8.650;2023-12-22T16:39:52;2.07;;;0.80;;
7475;SDS011;3779;49.216;8.650;2023-12-22T16:42:39;2.10;;;1.00;;
7475;SDS011;3779;49.216;8.650;2023-12-22T16:45:29;2.50;;;0.90;;
7475;SDS011;3779;49.216;8.650;2023-12-22T16:51:32;1.37;;;1.17;;
7475;SDS011;3779;49.216;8.650;2023-12-22T16:54:18;2.53;;;1.37;;
7475;SDS011;3779;49.216;8.650;2023-12-22T16:57:04;2.20;;;1.10;;
7475;SDS011;3779;49.216;8.650;2023-12-22T16:59:50;1.80;;;1.10;;
7475;SDS011;3779;49.216;8.650;2023-12-22T17:02:35;1.70;;;1.50;;
7475;SDS011;3779;49.216;8.650;2023-12-22T17:05:21;1.53;;;1.30;;
7475;SDS011;3779;49.216;8.650;2023-12-22T17:08:07;1.87;;;1.40;;
7475;SDS011;3779;49.216;8.650;2023-12-22T17:10:53;2.10;;;1.43;;
7475;SDS011;3779;49.216;8.650;2023-12-22T17:13:39;2.57;;;1.70;;
7475;SDS011;3779;49.216;8.650;2023-12-22T17:19:37;4.27;;;2.83;;
7475;SDS011;3779;49.216;8.650;2023-12-22T17:22:23;4.17;;;2.53;;
7475;SDS011;3779;49.216;8.650;2023-12-22T17:25:09;5.17;;;4.33;;
7475;SDS011;3779;49.216;8.650;2023-12-22T17:27:56;6.57;;;3.87;;
7475;SDS011;3779;49.216;8.650;2023-12-22T17:30:42;5.63;;;4.70;;
7475;SDS011;3779;49.216;8.650;2023-12-22T17:33:28;8.53;;;4.90;;
7475;SDS011;3779;49.216;8.650;2023-12-22T17:36:14;7.03;;;6.20;;
7475;SDS011;3779;49.216;8.650;2023-12-22T17:39:01;6.00;;;4.63;;
7475;SDS011;3779;49.216;8.650;2023-12-22T17:41:48;5.20;;;3.97;;
7475;SDS011;3779;49.216;8.650;2023-12-22T17:44:34;6.60;;;4.97;;
7475;SDS011;3779;49.216;8.650;2023-12-22T17:47:20;9.53;;;5.63;;
7475;SDS011;3779;49.216;8.650;2023-12-22T17:50:06;2.55;;;1.73;;
7475;SDS011;3779;49.216;8.650;2023-12-22T17:52:56;8.50;;;5.87;;
7475;SDS011;3779;49.216;8.650;2023-12-22T17:55:51;8.73;;;6.57;;
7475;SDS011;3779;49.216;8.650;2023-12-22T17:58:43;21.43;;;14.77;;
7475;SDS011;3779;49.216;8.650;2023-12-22T18:01:29;15.10;;;12.20;;
7475;SDS011;3779;49.216;8.650;2023-12-22T18:04:15;10.47;;;8.33;;
7475;SDS011;3779;49.216;8.650;2023-12-22T18:07:00;13.97;;;10.60;;
7475;SDS011;3779;49.216;8.650;2023-12-22T18:09:48;16.20;;;12.53;;
7475;SDS011;3779;49.216;8.650;2023-12-22T18:12:34;10.17;;;7.80;;
7475;SDS011;3779;49.216;8.650;2023-12-22T18:15:20;14.73;;;11.23;;
7475;SDS011;3779;49.216;8.650;2023-12-22T18:18:06;6.00;;;4.80;;
7475;SDS011;3779;49.216;8.650;2023-12-22T18:20:52;12.20;;;7.77;;
7475;SDS011;3779;49.216;8.650;2023-12-22T18:23:37;16.03;;;11.20;;
7475;SDS011;3779;49.216;8.650;2023-12-22T18:26:25;9.90;;;6.70;;
7475;SDS011;3779;49.216;8.650;2023-12-22T18:29:10;13.23;;;10.40;;
7475;SDS011;3779;49.216;8.650;2023-12-22T18:31:59;3.07;;;1.63;;
7475;SDS011;3779;49.216;8.650;2023-12-22T18:41:10;9.37;;;6.30;;
7475;SDS011;3779;49.216;8.650;2023-12-22T18:43:56;6.13;;;4.53;;
7475;SDS011;3779;49.216;8.650;2023-12-22T18:46:41;3.40;;;3.10;;
7475;SDS011;3779;49.216;8.650;2023-12-22T18:49:28;6.50;;;5.23;;
7475;SDS011;3779;49.216;8.650;2023-12-22T18:52:14;3.40;;;2.73;;
7475;SDS011;3779;49.216;8.650;2023-12-22T18:55:00;2.63;;;2.10;;
7475;SDS011;3779;49.216;8.650;2023-12-22T18:57:45;7.23;;;4.63;;
7475;SDS011;3779;49.216;8.650;2023-12-22T19:00:32;9.70;;;8.13;;
7475;SDS011;3779;49.216;8.650;2023-12-22T19:03:17;8.13;;;6.70;;
7475;SDS011;3779;49.216;8.650;2023-12-22T19:06:03;8.13;;;6.53;;
7475;SDS011;3779;49.216;8.650;2023-12-22T19:08:49;5.67;;;3.93;;
7475;SDS011;3779;49.216;8.650;2023-12-22T19:11:35;7.27;;;5.97;;
7475;SDS011;3779;49.216;8.650;2023-12-22T19:14:21;3.37;;;3.07;;
7475;SDS011;3779;49.216;8.650;2023-12-22T19:17:07;4.87;;;3.80;;
7475;SDS011;3779;49.216;8.650;2023-12-22T19:19:52;3.63;;;3.03;;
7475;SDS011;3779;49.216;8.650;2023-12-22T19:22:39;3.13;;;2.80;;
7475;SDS011;3779;49.216;8.650;2023-12-22T19:25:25;7.13;;;5.93;;
7475;SDS011;3779;49.216;8.650;2023-12-22T19:28:11;7.37;;;5.43;;
7475;SDS011;3779;49.216;8.650;2023-12-22T19:30:57;4.00;;;3.30;;
7475;SDS011;3779;49.216;8.650;2023-12-22T19:33:43;6.93;;;5.20;;
7475;SDS011;3779;49.216;8.650;2023-12-22T19:36:29;6.57;;;4.70;;
7475;SDS011;3779;49.216;8.650;2023-12-22T19:39:14;4.13;;;3.37;;
7475;SDS011;3779;49.216;8.650;2023-12-22T19:42:00;5.60;;;3.80;;
7475;SDS011;3779;49.216;8.650;2023-12-22T20:53:53;3.60;;;3.27;;
7475;SDS011;3779;49.216;8.650;2023-12-22T20:56:39;5.63;;;3.50;;
7475;SDS011;3779;49.216;8.650;2023-12-22T20:59:24;5.50;;;4.30;;
7475;SDS011;3779;49.216;8.650;2023-12-22T21:02:10;0.90;;;0.80;;
7475;SDS011;3779;49.216;8.650;2023-12-22T21:04:59;4.83;;;3.17;;
7475;SDS011;3779;49.216;8.650;2023-12-22T21:07:45;6.30;;;4.47;;
7475;SDS011;3779;49.216;8.650;2023-12-22T21:10:32;2.93;;;1.93;;
7475;SDS011;3779;49.216;8.650;2023-12-22T21:13:19;2.87;;;1.80;;
7475;SDS011;3779;49.216;8.650;2023-12-22T21:16:05;3.63;;;2.92;;
7475;SDS011;3779;49.216;8.650;2023-12-22T21:18:51;2.87;;;2.37;;
7475;SDS011;3779;49.216;8.650;2023-12-22T21:21:43;5.90;;;3.90;;
7475;SDS011;3779;49.216;8.650;2023-12-22T21:24:29;3.28;;;2.75;;
7475;SDS011;3779;49.216;8.650;2023-12-22T21:27:18;2.17;;;1.67;;
7475;SDS011;3779;49.216;8.650;2023-12-22T21:30:04;2.97;;;2.70;;
7475;SDS011;3779;49.216;8.650;2023-12-22T21:32:51;1.97;;;1.40;;
7475;SDS011;3779;49.216;8.650;2023-12-22T21:35:36;3.00;;;2.07;;
7475;SDS011;3779;49.216;8.650;2023-12-22T21:38:22;5.03;;;4.23;;
7475;SDS011;3779;49.216;8.650;2023-12-22T21:41:08;4.00;;;3.57;;
7475;SDS011;3779;49.216;8.650;2023-12-22T21:43:58;3.53;;;3.22;;
7475;SDS011;3779;49.216;8.650;2023-12-22T21:46:44;3.97;;;3.50;;
7475;SDS011;3779;49.216;8.650;2023-12-22T21:49:30;4.47;;;3.87;;
7475;SDS011;3779;49.216;8.650;2023-12-22T21:52:16;2.33;;;1.63;;
7475;SDS011;3779;49.216;8.650;2023-12-22T21:55:02;2.83;;;2.33;;
7475;SDS011;3779;49.216;8.650;2023-12-22T21:57:47;2.70;;;2.10;;
7475;SDS011;3779;49.216;8.650;2023-12-22T22:00:33;2.80;;;1.50;;
7475;SDS011;3779;49.216;8.650;2023-12-22T22:03:19;1.90;;;1.35;;
7475;SDS011;3779;49.216;8.650;2023-12-22T22:06:06;3.83;;;3.40;;
7475;SDS011;3779;49.216;8.650;2023-12-22T22:08:51;3.90;;;2.13;;
7475;SDS011;3779;49.216;8.650;2023-12-22T22:11:37;4.63;;;2.90;;
7475;SDS011;3779;49.216;8.650;2023-12-22T22:14:23;2.17;;;1.87;;
7475;SDS011;3779;49.216;8.650;2023-12-22T22:17:09;3.60;;;2.90;;
7475;SDS011;3779;49.216;8.650;2023-12-22T22:19:55;3.57;;;2.63;;
7475;SDS011;3779;49.216;8.650;2023-12-22T22:22:41;2.20;;;1.30;;
7475;SDS011;3779;49.216;8.650;2023-12-22T22:25:27;3.13;;;2.70;;
7475;SDS011;3779;49.216;8.650;2023-12-22T22:28:13;2.17;;;1.77;;
7475;SDS011;3779;49.216;8.650;2023-12-22T22:30:59;4.05;;;3.05;;
7475;SDS011;3779;49.216;8.650;2023-12-22T22:33:45;4.30;;;3.07;;
7475;SDS011;3779;49.216;8.650;2023-12-22T22:36:31;2.87;;;2.33;;
7475;SDS011;3779;49.216;8.650;2023-12-22T22:39:17;2.70;;;2.00;;
7475;SDS011;3779;49.216;8.650;2023-12-22T22:42:03;3.17;;;2.63;;
7475;SDS011;3779;49.216;8.650;2023-12-22T22:44:49;2.92;;;1.95;;
7475;SDS011;3779;49.216;8.650;2023-12-22T22:47:34;4.30;;;1.97;;
7475;SDS011;3779;49.216;8.650;2023-12-22T22:50:20;2.70;;;2.50;;
7475;SDS011;3779;49.216;8.650;2023-12-22T22:53:07;2.70;;;1.70;;
7475;SDS011;3779;49.216;8.650;2023-12-22T22:55:53;3.10;;;1.40;;
7475;SDS011;3779;49.216;8.650;2023-12-22T22:58:40;2.80;;;2.00;;
7475;SDS011;3779;49.216;8.650;2023-12-22T23:01:26;3.13;;;1.50;;
7475;SDS011;3779;49.216;8.650;2023-12-22T23:04:12;3.27;;;2.00;;
7475;SDS011;3779;49.216;8.650;2023-12-22T23:06:58;3.97;;;2.30;;
7475;SDS011;3779;49.216;8.650;2023-12-22T23:09:44;4.93;;;2.13;;
7475;SDS011;3779;49.216;8.650;2023-12-22T23:12:29;4.10;;;1.63;;
7475;SDS011;3779;49.216;8.650;2023-12-22T23:15:15;2.43;;;1.70;;
7475;SDS011;3779;49.216;8.650;2023-12-22T23:18:01;2.47;;;2.07;;
7475;SDS011;3779;49.216;8.650;2023-12-22T23:20:47;3.57;;;1.97;;
